sensor_id;sensor_type;location;lat;lon;timestamp;pressure;altitude;pressure_sealevel;temperature;humidity
43701;BME280;58809;47.984;7.964;2023-07-13T00:01:55;97264.03;;;20.17;75.46
43701;BME280;58809;47.984;7.964;2023-07-13T00:04:57;97259.22;;;20.19;74.88
43701;BME280;58809;47.984;7.964;2023-07-13T00:07:58;97276.25;;;20.25;75.11
43701;BME280;58809;47.984;7.964;2023-07-13T00:11:01;97280.94;;;20.17;77.46
43701;BME280;58809;47.984;7.964;2023-07-13T00:14:03;97282.81;;;20.17;79.32
43701;BME280;58809;47.984;7.964;2023-07-13T00:17:04;97283.41;;;20.19;79.84
43701;BME280;58809;47.984;7.964;2023-07-13T00:20:07;97277.78;;;20.21;80.01
43701;BME280;58809;47.984;7.964;2023-07-13T00:23:08;97269.88;;;20.14;78.85
43701;BME280;58809;47.984;7.964;2023-07-13T00:26:11;97273.19;;;20.04;79.26
43701;BME280;58809;47.984;7.964;2023-07-13T00:29:14;97275.56;;;19.89;79.09
43701;BME280;58809;47.984;7.964;2023-07-13T00:32:15;97272.31;;;19.87;77.64
43701;BME280;58809;47.984;7.964;2023-07-13T00:35:17;97270.19;;;19.89;76.38
43701;BME280;58809;47.984;7.964;2023-07-13T00:38:18;97269.25;;;19.95;75.39
43701;BME280;58809;47.984;7.964;2023-07-13T00:41:21;97272.75;;;19.95;74.63
43701;BME280;58809;47.984;7.964;2023-07-13T00:44:22;97272.19;;;19.93;74.19
43701;BME280;58809;47.984;7.964;2023-07-13T00:47:25;97272.19;;;19.93;74.27
43701;BME280;58809;47.984;7.964;2023-07-13T00:50:26;97262.13;;;19.89;75.84
43701;BME280;58809;47.984;7.964;2023-07-13T00:53:29;97267.41;;;19.84;76.81
43701;BME280;58809;47.984;7.964;2023-07-13T00:56:34;97265.22;;;19.80;77.18
43701;BME280;58809;47.984;7.964;2023-07-13T00:59:38;97278.53;;;19.75;77.08
43701;BME280;58809;47.984;7.964;2023-07-13T01:02:44;97273.50;;;19.79;76.97
43701;BME280;58809;47.984;7.964;2023-07-13T01:05:49;97279.09;;;19.77;77.60
43701;BME280;58809;47.984;7.964;2023-07-13T01:08:51;97279.47;;;19.69;77.24
43701;BME280;58809;47.984;7.964;2023-07-13T01:11:53;97274.22;;;19.62;76.80
43701;BME280;58809;47.984;7.964;2023-07-13T01:14:59;97270.72;;;19.62;77.27
43701;BME280;58809;47.984;7.964;2023-07-13T01:18:02;97270.38;;;19.47;77.90
43701;BME280;58809;47.984;7.964;2023-07-13T01:21:05;97261.56;;;19.34;78.81
43701;BME280;58809;47.984;7.964;2023-07-13T01:24:07;97256.09;;;19.17;79.24
43701;BME280;58809;47.984;7.964;2023-07-13T01:27:11;97254.94;;;19.13;80.02
43701;BME280;58809;47.984;7.964;2023-07-13T01:30:14;97265.19;;;19.04;78.62
43701;BME280;58809;47.984;7.964;2023-07-13T01:33:17;97267.78;;;18.99;77.70
43701;BME280;58809;47.984;7.964;2023-07-13T01:36:19;97268.34;;;19.01;78.21
43701;BME280;58809;47.984;7.964;2023-07-13T01:39:23;97261.34;;;19.00;78.25
43701;BME280;58809;47.984;7.964;2023-07-13T01:42:24;97255.19;;;19.00;77.87
43701;BME280;58809;47.984;7.964;2023-07-13T01:45:26;97243.41;;;18.89;77.56
43701;BME280;58809;47.984;7.964;2023-07-13T01:48:28;97252.31;;;18.71;77.96
43701;BME280;58809;47.984;7.964;2023-07-13T01:51:29;97250.38;;;18.66;77.53
43701;BME280;58809;47.984;7.964;2023-07-13T01:54:31;97255.81;;;18.72;76.87
43701;BME280;58809;47.984;7.964;2023-07-13T01:57:32;97245.69;;;18.74;76.82
43701;BME280;58809;47.984;7.964;2023-07-13T02:00:34;97253.03;;;18.66;76.04
43701;BME280;58809;47.984;7.964;2023-07-13T02:03:36;97251.84;;;18.62;75.26
43701;BME280;58809;47.984;7.964;2023-07-13T02:06:37;97248.94;;;18.52;75.04
43701;BME280;58809;47.984;7.964;2023-07-13T02:09:39;97235.63;;;18.34;76.80
43701;BME280;58809;47.984;7.964;2023-07-13T02:12:41;97247.59;;;18.31;78.58
43701;BME280;58809;47.984;7.964;2023-07-13T02:15:43;97252.16;;;18.31;80.27
43701;BME280;58809;47.984;7.964;2023-07-13T02:18:45;97258.31;;;18.31;82.86
43701;BME280;58809;47.984;7.964;2023-07-13T02:21:47;97255.41;;;18.33;83.49
43701;BME280;58809;47.984;7.964;2023-07-13T02:24:49;97259.16;;;18.32;84.03
43701;BME280;58809;47.984;7.964;2023-07-13T02:27:52;97250.97;;;18.26;83.01
43701;BME280;58809;47.984;7.964;2023-07-13T02:30:54;97242.22;;;18.19;82.30
43701;BME280;58809;47.984;7.964;2023-07-13T02:33:55;97242.19;;;18.07;82.28
43701;BME280;58809;47.984;7.964;2023-07-13T02:36:57;97244.81;;;17.96;82.45
43701;BME280;58809;47.984;7.964;2023-07-13T02:39:59;97247.34;;;17.91;83.97
43701;BME280;58809;47.984;7.964;2023-07-13T02:43:01;97256.44;;;17.89;84.70
43701;BME280;58809;47.984;7.964;2023-07-13T02:46:05;97252.28;;;17.94;85.28
43701;BME280;58809;47.984;7.964;2023-07-13T02:49:10;97255.53;;;17.96;84.64
43701;BME280;58809;47.984;7.964;2023-07-13T02:52:12;97249.00;;;17.92;84.48
43701;BME280;58809;47.984;7.964;2023-07-13T02:55:13;97238.75;;;17.88;84.72
43701;BME280;58809;47.984;7.964;2023-07-13T02:58:15;97246.41;;;17.85;84.27
43701;BME280;58809;47.984;7.964;2023-07-13T03:01:18;97247.69;;;17.64;85.70
43701;BME280;58809;47.984;7.964;2023-07-13T03:04:20;97251.34;;;17.51;86.17
43701;BME280;58809;47.984;7.964;2023-07-13T03:07:22;97252.75;;;17.54;87.37
43701;BME280;58809;47.984;7.964;2023-07-13T03:10:25;97250.22;;;17.59;86.80
43701;BME280;58809;47.984;7.964;2023-07-13T03:13:28;97241.88;;;17.48;86.85
43701;BME280;58809;47.984;7.964;2023-07-13T03:16:30;97249.19;;;17.41;87.54
43701;BME280;58809;47.984;7.964;2023-07-13T03:19:31;97254.38;;;17.36;87.85
43701;BME280;58809;47.984;7.964;2023-07-13T03:22:33;97263.06;;;17.31;87.95
43701;BME280;58809;47.984;7.964;2023-07-13T03:25:35;97261.66;;;17.29;89.00
43701;BME280;58809;47.984;7.964;2023-07-13T03:28:37;97262.28;;;17.31;88.89
43701;BME280;58809;47.984;7.964;2023-07-13T03:31:39;97271.09;;;17.31;89.02
43701;BME280;58809;47.984;7.964;2023-07-13T03:34:41;97271.09;;;17.31;89.63
43701;BME280;58809;47.984;7.964;2023-07-13T03:37:43;97266.41;;;17.27;90.08
43701;BME280;58809;47.984;7.964;2023-07-13T03:40:50;97269.44;;;17.30;89.07
43701;BME280;58809;47.984;7.964;2023-07-13T03:43:53;97274.31;;;17.22;88.52
43701;BME280;58809;47.984;7.964;2023-07-13T03:46:56;97281.31;;;17.16;88.94
43701;BME280;58809;47.984;7.964;2023-07-13T03:49:58;97278.44;;;17.18;88.66
43701;BME280;58809;47.984;7.964;2023-07-13T03:53:00;97277.03;;;17.15;88.97
43701;BME280;58809;47.984;7.964;2023-07-13T03:56:02;97281.56;;;17.15;89.13
43701;BME280;58809;47.984;7.964;2023-07-13T03:59:04;97280.81;;;17.07;89.42
43701;BME280;58809;47.984;7.964;2023-07-13T04:02:05;97277.53;;;17.05;89.99
43701;BME280;58809;47.984;7.964;2023-07-13T04:05:08;97285.47;;;17.12;89.87
43701;BME280;58809;47.984;7.964;2023-07-13T04:08:10;97288.53;;;17.16;89.33
43701;BME280;58809;47.984;7.964;2023-07-13T04:11:11;97292.63;;;17.18;89.69
43701;BME280;58809;47.984;7.964;2023-07-13T04:14:13;97287.81;;;17.27;89.31
43701;BME280;58809;47.984;7.964;2023-07-13T04:17:15;97299.72;;;17.31;88.57
43701;BME280;58809;47.984;7.964;2023-07-13T04:20:16;97301.31;;;17.32;88.55
43701;BME280;58809;47.984;7.964;2023-07-13T04:23:18;97299.63;;;17.38;87.63
43701;BME280;58809;47.984;7.964;2023-07-13T04:26:20;97290.19;;;17.54;86.55
43701;BME280;58809;47.984;7.964;2023-07-13T04:29:22;97301.50;;;17.56;86.35
43701;BME280;58809;47.984;7.964;2023-07-13T04:32:24;97308.34;;;17.51;86.87
43701;BME280;58809;47.984;7.964;2023-07-13T04:35:25;97305.06;;;17.49;87.09
43701;BME280;58809;47.984;7.964;2023-07-13T04:38:29;97317.53;;;17.56;86.46
43701;BME280;58809;47.984;7.964;2023-07-13T04:41:31;97329.44;;;17.60;86.89
43701;BME280;58809;47.984;7.964;2023-07-13T04:44:32;97322.84;;;17.62;86.67
43701;BME280;58809;47.984;7.964;2023-07-13T04:47:34;97323.78;;;17.68;85.11
43701;BME280;58809;47.984;7.964;2023-07-13T04:50:36;97324.59;;;17.68;84.67
43701;BME280;58809;47.984;7.964;2023-07-13T04:53:38;97320.97;;;17.63;84.76
43701;BME280;58809;47.984;7.964;2023-07-13T04:56:40;97326.91;;;17.65;84.78
43701;BME280;58809;47.984;7.964;2023-07-13T04:59:41;97323.50;;;17.58;85.45
43701;BME280;58809;47.984;7.964;2023-07-13T05:02:44;97334.34;;;17.44;85.69
43701;BME280;58809;47.984;7.964;2023-07-13T05:05:56;97338.03;;;17.43;87.97
43701;BME280;58809;47.984;7.964;2023-07-13T05:08:59;97344.88;;;17.58;86.30
43701;BME280;58809;47.984;7.964;2023-07-13T05:12:00;97344.16;;;17.69;85.98
43701;BME280;58809;47.984;7.964;2023-07-13T05:15:03;97345.72;;;17.77;85.07
43701;BME280;58809;47.984;7.964;2023-07-13T05:18:05;97348.53;;;17.82;85.19
43701;BME280;58809;47.984;7.964;2023-07-13T05:21:08;97346.78;;;17.94;85.46
43701;BME280;58809;47.984;7.964;2023-07-13T05:24:10;97358.06;;;17.96;84.10
43701;BME280;58809;47.984;7.964;2023-07-13T05:27:25;97356.34;;;18.02;83.27
43701;BME280;58809;47.984;7.964;2023-07-13T05:30:27;97363.44;;;17.96;83.97
43701;BME280;58809;47.984;7.964;2023-07-13T05:33:28;97365.59;;;18.06;83.91
43701;BME280;58809;47.984;7.964;2023-07-13T05:36:30;97374.81;;;18.10;84.16
43701;BME280;58809;47.984;7.964;2023-07-13T05:39:32;97374.06;;;18.03;84.17
43701;BME280;58809;47.984;7.964;2023-07-13T05:42:34;97375.78;;;18.16;84.65
43701;BME280;58809;47.984;7.964;2023-07-13T05:45:36;97380.75;;;18.42;83.58
43701;BME280;58809;47.984;7.964;2023-07-13T05:48:37;97371.41;;;18.63;81.91
43701;BME280;58809;47.984;7.964;2023-07-13T05:51:39;97371.00;;;18.78;81.17
43701;BME280;58809;47.984;7.964;2023-07-13T05:54:41;97367.19;;;18.86;79.80
43701;BME280;58809;47.984;7.964;2023-07-13T05:57:42;97371.16;;;18.83;79.46
43701;BME280;58809;47.984;7.964;2023-07-13T06:00:44;97378.16;;;18.96;77.37
43701;BME280;58809;47.984;7.964;2023-07-13T06:03:46;97373.88;;;19.07;75.61
43701;BME280;58809;47.984;7.964;2023-07-13T06:06:48;97380.19;;;19.13;74.51
43701;BME280;58809;47.984;7.964;2023-07-13T06:09:50;97371.41;;;19.17;74.15
43701;BME280;58809;47.984;7.964;2023-07-13T06:12:53;97375.16;;;19.28;74.05
43701;BME280;58809;47.984;7.964;2023-07-13T06:15:54;97379.97;;;19.38;73.15
43701;BME280;58809;47.984;7.964;2023-07-13T06:18:56;97385.91;;;19.40;72.00
43701;BME280;58809;47.984;7.964;2023-07-13T06:21:58;97395.25;;;19.49;71.23
43701;BME280;58809;47.984;7.964;2023-07-13T06:25:00;97398.72;;;19.61;70.48
43701;BME280;58809;47.984;7.964;2023-07-13T06:28:02;97391.38;;;19.69;70.94
43701;BME280;58809;47.984;7.964;2023-07-13T06:31:06;97391.28;;;19.75;69.76
43701;BME280;58809;47.984;7.964;2023-07-13T06:34:08;97390.34;;;19.81;68.15
43701;BME280;58809;47.984;7.964;2023-07-13T06:37:10;97394.09;;;19.80;66.80
43701;BME280;58809;47.984;7.964;2023-07-13T06:40:11;97392.44;;;19.91;65.51
43701;BME280;58809;47.984;7.964;2023-07-13T06:43:13;97390.19;;;20.00;65.72
43701;BME280;58809;47.984;7.964;2023-07-13T06:46:15;97388.69;;;20.04;65.15
43701;BME280;58809;47.984;7.964;2023-07-13T06:49:16;97390.81;;;20.02;64.86
43701;BME280;58809;47.984;7.964;2023-07-13T06:52:18;97397.44;;;20.11;63.76
43701;BME280;58809;47.984;7.964;2023-07-13T06:55:19;97390.88;;;20.19;63.75
43701;BME280;58809;47.984;7.964;2023-07-13T06:58:21;97387.22;;;20.25;62.55
43701;BME280;58809;47.984;7.964;2023-07-13T07:01:23;97394.34;;;20.31;62.07
43701;BME280;58809;47.984;7.964;2023-07-13T07:04:24;97395.50;;;20.35;60.51
43701;BME280;58809;47.984;7.964;2023-07-13T07:07:26;97396.06;;;20.37;60.23
43701;BME280;58809;47.984;7.964;2023-07-13T07:10:29;97391.84;;;20.42;60.26
43701;BME280;58809;47.984;7.964;2023-07-13T07:13:31;97394.38;;;20.48;60.00
43701;BME280;58809;47.984;7.964;2023-07-13T07:16:33;97395.88;;;20.56;59.21
43701;BME280;58809;47.984;7.964;2023-07-13T07:19:35;97402.75;;;20.64;58.72
43701;BME280;58809;47.984;7.964;2023-07-13T07:22:36;97402.97;;;20.74;58.39
43701;BME280;58809;47.984;7.964;2023-07-13T07:25:38;97404.34;;;20.76;57.99
43701;BME280;58809;47.984;7.964;2023-07-13T07:28:43;97414.28;;;20.76;58.22
43701;BME280;58809;47.984;7.964;2023-07-13T07:31:50;97407.44;;;20.85;58.03
43701;BME280;58809;47.984;7.964;2023-07-13T07:35:12;97411.63;;;20.93;57.66
43701;BME280;58809;47.984;7.964;2023-07-13T07:38:13;97402.19;;;21.07;57.23
43701;BME280;58809;47.984;7.964;2023-07-13T07:41:15;97414.06;;;21.11;56.92
43701;BME280;58809;47.984;7.964;2023-07-13T07:44:19;97412.63;;;21.21;55.99
43701;BME280;58809;47.984;7.964;2023-07-13T07:47:21;97415.41;;;21.26;55.27
43701;BME280;58809;47.984;7.964;2023-07-13T07:50:28;97410.09;;;21.31;55.23
43701;BME280;58809;47.984;7.964;2023-07-13T07:53:30;97411.44;;;21.45;55.16
43701;BME280;58809;47.984;7.964;2023-07-13T07:56:34;97418.69;;;21.62;55.03
43701;BME280;58809;47.984;7.964;2023-07-13T07:59:39;97420.84;;;21.82;54.86
43701;BME280;58809;47.984;7.964;2023-07-13T08:02:44;97413.22;;;21.96;54.53
43701;BME280;58809;47.984;7.964;2023-07-13T08:05:48;97413.44;;;22.11;54.52
43701;BME280;58809;47.984;7.964;2023-07-13T08:09:10;97392.59;;;22.06;53.95
43701;BME280;58809;47.984;7.964;2023-07-13T08:12:11;97403.06;;;22.25;53.68
43701;BME280;58809;47.984;7.964;2023-07-13T08:15:16;97419.25;;;22.25;52.88
43701;BME280;58809;47.984;7.964;2023-07-13T08:18:18;97409.53;;;22.24;52.57
43701;BME280;58809;47.984;7.964;2023-07-13T08:21:19;97419.41;;;22.35;52.32
43701;BME280;58809;47.984;7.964;2023-07-13T08:24:23;97421.91;;;22.42;52.17
43701;BME280;58809;47.984;7.964;2023-07-13T08:27:26;97413.69;;;22.54;52.22
43701;BME280;58809;47.984;7.964;2023-07-13T08:30:28;97412.72;;;22.65;51.81
43701;BME280;58809;47.984;7.964;2023-07-13T08:33:29;97423.16;;;22.83;51.73
43701;BME280;58809;47.984;7.964;2023-07-13T08:36:31;97419.03;;;23.03;51.14
43701;BME280;58809;47.984;7.964;2023-07-13T08:39:33;97428.97;;;23.24;50.74
43701;BME280;58809;47.984;7.964;2023-07-13T08:42:39;97421.75;;;23.35;49.68
43701;BME280;58809;47.984;7.964;2023-07-13T08:45:51;97416.69;;;23.44;50.36
43701;BME280;58809;47.984;7.964;2023-07-13T08:48:57;97419.94;;;23.46;50.34
43701;BME280;58809;47.984;7.964;2023-07-13T08:52:04;97419.94;;;23.09;50.20
43701;BME280;58809;47.984;7.964;2023-07-13T08:55:18;97422.66;;;22.86;50.65
43701;BME280;58809;47.984;7.964;2023-07-13T08:58:21;97422.34;;;22.83;50.69
43701;BME280;58809;47.984;7.964;2023-07-13T09:01:33;97414.69;;;22.75;50.39
43701;BME280;58809;47.984;7.964;2023-07-13T09:05:17;97432.63;;;22.59;51.11
43701;BME280;58809;47.984;7.964;2023-07-13T09:08:30;97432.06;;;22.84;50.75
43701;BME280;58809;47.984;7.964;2023-07-13T09:11:49;97424.44;;;23.30;49.29
43701;BME280;58809;47.984;7.964;2023-07-13T09:14:54;97432.44;;;23.52;49.21
43701;BME280;58809;47.984;7.964;2023-07-13T09:18:03;97416.03;;;23.64;48.38
43701;BME280;58809;47.984;7.964;2023-07-13T09:21:22;97415.44;;;23.94;48.46
43701;BME280;58809;47.984;7.964;2023-07-13T09:24:38;97426.50;;;23.93;48.64
43701;BME280;58809;47.984;7.964;2023-07-13T09:27:43;97426.88;;;24.12;47.77
43701;BME280;58809;47.984;7.964;2023-07-13T09:31:04;97429.38;;;24.29;47.04
43701;BME280;58809;47.984;7.964;2023-07-13T09:34:11;97435.16;;;23.95;47.78
43701;BME280;58809;47.984;7.964;2023-07-13T09:37:13;97428.81;;;23.79;47.71
43701;BME280;58809;47.984;7.964;2023-07-13T09:40:26;97435.28;;;23.73;47.37
43701;BME280;58809;47.984;7.964;2023-07-13T09:43:29;97430.25;;;23.49;47.86
43701;BME280;58809;47.984;7.964;2023-07-13T09:46:30;97421.84;;;23.45;47.14
43701;BME280;58809;47.984;7.964;2023-07-13T09:49:36;97409.75;;;23.53;46.70
43701;BME280;58809;47.984;7.964;2023-07-13T09:52:42;97422.69;;;23.51;46.98
43701;BME280;58809;47.984;7.964;2023-07-13T09:55:47;97418.84;;;23.42;47.18
43701;BME280;58809;47.984;7.964;2023-07-13T09:58:53;97422.72;;;23.56;46.75
43701;BME280;58809;47.984;7.964;2023-07-13T10:01:55;97427.41;;;23.71;46.28
43701;BME280;58809;47.984;7.964;2023-07-13T10:05:00;97419.91;;;23.78;46.25
43701;BME280;58809;47.984;7.964;2023-07-13T10:08:02;97439.63;;;23.79;45.90
43701;BME280;58809;47.984;7.964;2023-07-13T10:11:22;97423.06;;;23.65;45.98
43701;BME280;58809;47.984;7.964;2023-07-13T10:14:24;97428.09;;;23.83;46.12
43701;BME280;58809;47.984;7.964;2023-07-13T10:17:31;97428.78;;;23.69;45.86
43701;BME280;58809;47.984;7.964;2023-07-13T10:20:33;97430.28;;;23.22;46.11
43701;BME280;58809;47.984;7.964;2023-07-13T10:23:34;97430.78;;;23.14;45.29
43701;BME280;58809;47.984;7.964;2023-07-13T10:26:39;97437.63;;;23.27;45.31
43701;BME280;58809;47.984;7.964;2023-07-13T10:29:52;97441.13;;;23.27;44.76
43701;BME280;58809;47.984;7.964;2023-07-13T10:33:02;97421.19;;;23.33;43.86
43701;BME280;58809;47.984;7.964;2023-07-13T10:36:31;97431.28;;;23.43;43.21
43701;BME280;58809;47.984;7.964;2023-07-13T10:39:35;97421.00;;;23.40;43.25
43701;BME280;58809;47.984;7.964;2023-07-13T10:42:42;97425.69;;;23.55;43.41
43701;BME280;58809;47.984;7.964;2023-07-13T10:45:47;97429.63;;;23.74;42.90
43701;BME280;58809;47.984;7.964;2023-07-13T10:48:55;97429.44;;;23.86;42.57
43701;BME280;58809;47.984;7.964;2023-07-13T10:51:58;97441.03;;;23.87;42.28
43701;BME280;58809;47.984;7.964;2023-07-13T10:55:02;97432.50;;;24.00;42.29
43701;BME280;58809;47.984;7.964;2023-07-13T11:01:20;97437.28;;;24.40;40.26
43701;BME280;58809;47.984;7.964;2023-07-13T11:04:23;97429.53;;;24.65;40.11
43701;BME280;58809;47.984;7.964;2023-07-13T11:07:28;97428.22;;;24.83;39.67
43701;BME280;58809;47.984;7.964;2023-07-13T11:10:54;97420.41;;;25.02;39.35
43701;BME280;58809;47.984;7.964;2023-07-13T11:14:01;97422.84;;;25.08;39.27
43701;BME280;58809;47.984;7.964;2023-07-13T11:20:38;97421.22;;;24.92;39.66
43701;BME280;58809;47.984;7.964;2023-07-13T11:23:52;97417.97;;;25.05;37.55
43701;BME280;58809;47.984;7.964;2023-07-13T11:26:56;97420.19;;;25.24;37.86
43701;BME280;58809;47.984;7.964;2023-07-13T11:36:43;97409.06;;;25.15;40.40
43701;BME280;58809;47.984;7.964;2023-07-13T11:39:47;97417.22;;;25.35;39.91
43701;BME280;58809;47.984;7.964;2023-07-13T11:42:52;97407.72;;;25.33;39.03
43701;BME280;58809;47.984;7.964;2023-07-13T11:45:53;97409.34;;;25.39;38.44
43701;BME280;58809;47.984;7.964;2023-07-13T11:48:55;97405.56;;;25.45;38.83
43701;BME280;58809;47.984;7.964;2023-07-13T11:51:57;97401.16;;;25.80;38.58
43701;BME280;58809;47.984;7.964;2023-07-13T11:55:00;97407.69;;;25.64;38.85
43701;BME280;58809;47.984;7.964;2023-07-13T11:58:02;97419.06;;;25.76;38.45
43701;BME280;58809;47.984;7.964;2023-07-13T12:01:04;97407.94;;;25.72;38.81
43701;BME280;58809;47.984;7.964;2023-07-13T12:04:24;97406.81;;;26.04;39.85
43701;BME280;58809;47.984;7.964;2023-07-13T12:07:29;97417.34;;;26.21;39.14
43701;BME280;58809;47.984;7.964;2023-07-13T12:10:31;97407.91;;;26.03;39.00
43701;BME280;58809;47.984;7.964;2023-07-13T12:13:37;97417.03;;;26.28;38.62
43701;BME280;58809;47.984;7.964;2023-07-13T12:16:40;97406.41;;;26.37;38.54
43701;BME280;58809;47.984;7.964;2023-07-13T12:19:43;97418.53;;;26.60;38.65
43701;BME280;58809;47.984;7.964;2023-07-13T12:22:46;97404.50;;;26.92;38.61
43701;BME280;58809;47.984;7.964;2023-07-13T12:25:48;97414.88;;;27.24;37.91
43701;BME280;58809;47.984;7.964;2023-07-13T12:28:54;97405.94;;;27.19;38.04
43701;BME280;58809;47.984;7.964;2023-07-13T12:31:58;97406.72;;;27.24;37.91
43701;BME280;58809;47.984;7.964;2023-07-13T12:35:15;97407.31;;;27.16;37.47
43701;BME280;58809;47.984;7.964;2023-07-13T12:38:19;97397.56;;;27.15;37.84
43701;BME280;58809;47.984;7.964;2023-07-13T12:41:23;97402.19;;;26.75;38.64
43701;BME280;58809;47.984;7.964;2023-07-13T12:44:29;97398.13;;;26.73;38.87
43701;BME280;58809;47.984;7.964;2023-07-13T12:47:39;97399.16;;;26.82;38.87
43701;BME280;58809;47.984;7.964;2023-07-13T12:50:46;97397.25;;;27.22;37.97
43701;BME280;58809;47.984;7.964;2023-07-13T12:53:51;97391.06;;;27.75;38.02
43701;BME280;58809;47.984;7.964;2023-07-13T12:56:57;97395.06;;;27.82;37.49
43701;BME280;58809;47.984;7.964;2023-07-13T13:00:02;97390.19;;;27.79;37.36
43701;BME280;58809;47.984;7.964;2023-07-13T13:06:34;97387.97;;;28.11;36.67
43701;BME280;58809;47.984;7.964;2023-07-13T13:09:37;97386.88;;;28.12;36.08
43701;BME280;58809;47.984;7.964;2023-07-13T13:12:39;97393.06;;;27.64;37.04
43701;BME280;58809;47.984;7.964;2023-07-13T13:15:43;97384.16;;;27.58;37.08
43701;BME280;58809;47.984;7.964;2023-07-13T13:18:45;97402.13;;;27.20;37.93
43701;BME280;58809;47.984;7.964;2023-07-13T13:21:47;97398.97;;;26.63;38.87
43701;BME280;58809;47.984;7.964;2023-07-13T13:24:49;97389.63;;;26.35;39.44
43701;BME280;58809;47.984;7.964;2023-07-13T13:27:50;97396.50;;;26.72;38.94
43701;BME280;58809;47.984;7.964;2023-07-13T13:30:52;97381.38;;;27.63;38.58
43701;BME280;58809;47.984;7.964;2023-07-13T13:33:53;97380.78;;;28.82;36.57
43701;BME280;58809;47.984;7.964;2023-07-13T13:36:56;97379.97;;;29.01;36.80
43701;BME280;58809;47.984;7.964;2023-07-13T13:40:01;97386.84;;;27.88;37.64
43701;BME280;58809;47.984;7.964;2023-07-13T13:43:21;97388.97;;;26.98;39.02
43701;BME280;58809;47.984;7.964;2023-07-13T13:46:27;97390.91;;;26.97;39.25
43701;BME280;58809;47.984;7.964;2023-07-13T13:49:31;97396.84;;;27.97;37.59
43701;BME280;58809;47.984;7.964;2023-07-13T13:52:33;97398.50;;;27.93;37.58
43701;BME280;58809;47.984;7.964;2023-07-13T13:55:34;97392.78;;;27.36;37.56
43701;BME280;58809;47.984;7.964;2023-07-13T13:58:36;97387.41;;;27.31;37.69
43701;BME280;58809;47.984;7.964;2023-07-13T14:01:38;97397.78;;;28.74;36.97
43701;BME280;58809;47.984;7.964;2023-07-13T14:04:41;97391.16;;;29.18;35.43
43701;BME280;58809;47.984;7.964;2023-07-13T14:07:42;97397.25;;;29.10;36.44
43701;BME280;58809;47.984;7.964;2023-07-13T14:10:45;97393.59;;;34.68;30.26
43701;BME280;58809;47.984;7.964;2023-07-13T14:13:49;97395.19;;;39.08;25.22
43701;BME280;58809;47.984;7.964;2023-07-13T14:16:51;97396.66;;;40.60;24.18
43701;BME280;58809;47.984;7.964;2023-07-13T14:19:55;97395.19;;;42.09;22.45
43701;BME280;58809;47.984;7.964;2023-07-13T14:22:59;97398.50;;;38.78;24.93
43701;BME280;58809;47.984;7.964;2023-07-13T14:26:01;97398.34;;;33.26;30.27
43701;BME280;58809;47.984;7.964;2023-07-13T14:29:08;97397.53;;;30.85;33.31
43701;BME280;58809;47.984;7.964;2023-07-13T14:32:13;97384.25;;;29.40;34.87
43701;BME280;58809;47.984;7.964;2023-07-13T14:35:15;97388.00;;;28.30;36.37
43701;BME280;58809;47.984;7.964;2023-07-13T14:38:19;97386.59;;;26.91;38.26
43701;BME280;58809;47.984;7.964;2023-07-13T14:41:21;97385.34;;;26.13;39.80
43701;BME280;58809;47.984;7.964;2023-07-13T14:44:27;97390.31;;;25.80;41.14
43701;BME280;58809;47.984;7.964;2023-07-13T14:47:30;97394.91;;;26.00;40.70
43701;BME280;58809;47.984;7.964;2023-07-13T14:50:33;97401.63;;;26.18;40.08
43701;BME280;58809;47.984;7.964;2023-07-13T14:53:36;97393.50;;;26.08;40.09
43701;BME280;58809;47.984;7.964;2023-07-13T14:56:40;97393.25;;;26.04;40.73
43701;BME280;58809;47.984;7.964;2023-07-13T14:59:42;97381.78;;;26.23;40.33
43701;BME280;58809;47.984;7.964;2023-07-13T15:02:52;97385.06;;;27.14;39.37
43701;BME280;58809;47.984;7.964;2023-07-13T15:05:55;97384.94;;;28.79;37.09
43701;BME280;58809;47.984;7.964;2023-07-13T15:08:57;97384.84;;;28.66;36.87
43701;BME280;58809;47.984;7.964;2023-07-13T15:11:59;97386.44;;;28.05;38.11
43701;BME280;58809;47.984;7.964;2023-07-13T15:15:00;97381.47;;;27.24;39.04
43701;BME280;58809;47.984;7.964;2023-07-13T15:18:02;97380.91;;;28.34;38.37
43701;BME280;58809;47.984;7.964;2023-07-13T15:21:04;97382.25;;;33.15;31.71
43701;BME280;58809;47.984;7.964;2023-07-13T15:24:05;97386.56;;;31.44;33.07
43701;BME280;58809;47.984;7.964;2023-07-13T15:27:11;97380.94;;;30.03;34.58
43701;BME280;58809;47.984;7.964;2023-07-13T15:30:14;97386.91;;;35.20;29.85
43701;BME280;58809;47.984;7.964;2023-07-13T15:33:23;97391.16;;;38.86;26.15
43701;BME280;58809;47.984;7.964;2023-07-13T15:36:26;97390.59;;;38.61;25.56
43701;BME280;58809;47.984;7.964;2023-07-13T15:39:28;97390.50;;;37.74;25.34
43701;BME280;58809;47.984;7.964;2023-07-13T15:42:32;97382.66;;;37.92;26.51
43701;BME280;58809;47.984;7.964;2023-07-13T15:45:34;97386.34;;;42.48;22.99
43701;BME280;58809;47.984;7.964;2023-07-13T15:48:36;97390.69;;;44.95;20.77
43701;BME280;58809;47.984;7.964;2023-07-13T15:51:37;97394.78;;;44.54;21.37
43701;BME280;58809;47.984;7.964;2023-07-13T15:54:39;97390.81;;;44.48;20.89
43701;BME280;58809;47.984;7.964;2023-07-13T15:57:49;97387.31;;;42.81;21.43
43701;BME280;58809;47.984;7.964;2023-07-13T16:00:51;97385.59;;;40.64;23.11
43701;BME280;58809;47.984;7.964;2023-07-13T16:03:53;97376.69;;;35.87;26.59
43701;BME280;58809;47.984;7.964;2023-07-13T16:06:55;97372.44;;;32.22;29.98
43701;BME280;58809;47.984;7.964;2023-07-13T16:09:56;97369.19;;;30.95;31.70
43701;BME280;58809;47.984;7.964;2023-07-13T16:12:58;97370.63;;;30.28;33.01
43701;BME280;58809;47.984;7.964;2023-07-13T16:16:01;97371.09;;;29.74;34.86
43701;BME280;58809;47.984;7.964;2023-07-13T16:19:04;97369.81;;;29.39;34.41
43701;BME280;58809;47.984;7.964;2023-07-13T16:22:15;97360.38;;;29.17;35.44
43701;BME280;58809;47.984;7.964;2023-07-13T16:25:23;97371.88;;;29.14;35.20
43701;BME280;58809;47.984;7.964;2023-07-13T16:28:25;97375.53;;;30.26;33.98
43701;BME280;58809;47.984;7.964;2023-07-13T16:31:31;97380.22;;;31.35;32.07